Ansley, Louisiana
Current Conditions -  °F | °C
As of 2:35 PM on Monday 24 Nov 2014 (Local Time) from KRSN Reporting Station
Clear Clear  
Wind Chill: 62°   Ceiling: Unl
Heat Index: 62°   Visibility: 10mi
Dew Point: 31°   Wind: 7mph
Humidity: 32%   Direction: 330°NNW
Pressure: 30.01"   Gusts: NA
Location:  32.5075°N, 92.6828°W
Report Text: KRSN 242035Z AUTO 33006KT 10SM CLR 17/00 A3001 RMK AO2 T01661004
Loading
Personal Weather Stations






























Interactive Weather Map New forecast layout! Learn more

10-Day Weather Forecast

Advertisements
Track Severe Weather on mobile